createdAt,value
2018-09-29T00:00:47.746Z,102358.44
2018-09-29T00:03:20.038Z,102365.06
2018-09-29T00:05:48.407Z,102367.44
2018-09-29T00:08:16.793Z,102359.47
2018-09-29T00:10:45.227Z,102362.41
2018-09-29T00:13:13.628Z,102356.91
2018-09-29T00:15:42.058Z,102357.97
2018-09-29T00:18:10.507Z,102350.25
2018-09-29T00:20:38.920Z,102348.17
2018-09-29T00:23:07.437Z,102347.70
2018-09-29T00:25:35.857Z,102354.88
2018-09-29T00:28:04.637Z,102355.42
2018-09-29T00:30:33.050Z,102350.17
2018-09-29T00:33:01.465Z,102361.54
2018-09-29T00:35:29.912Z,102363.88
2018-09-29T00:37:58.340Z,102364.52
2018-09-29T00:40:26.773Z,102365.97
2018-09-29T00:42:55.286Z,102372.09
2018-09-29T00:45:23.734Z,102372.19
2018-09-29T00:47:52.140Z,102367.02
2018-09-29T00:50:20.574Z,102367.81
2018-09-29T00:52:48.985Z,102368.37
2018-09-29T00:55:17.430Z,102366.22
2018-09-29T00:57:45.817Z,102373.38
2018-09-29T01:00:14.217Z,102368.13
2018-09-29T01:02:42.609Z,102365.11
2018-09-29T01:05:11.016Z,102365.27
2018-09-29T01:07:39.411Z,102364.46
2018-09-29T01:10:08.192Z,102370.05
2018-09-29T01:12:36.602Z,102371.47
2018-09-29T01:15:05.075Z,102366.70
2018-09-29T01:17:33.488Z,102363.52
2018-09-29T01:20:01.951Z,102362.23
2018-09-29T01:22:30.792Z,102354.38
2018-09-29T01:24:59.283Z,102351.81
2018-09-29T01:27:27.701Z,102349.77
2018-09-29T01:29:56.157Z,102353.99
2018-09-29T01:32:24.562Z,102348.08
2018-09-29T01:34:53.094Z,102350.05
2018-09-29T01:37:21.547Z,102353.95
2018-09-29T01:39:49.948Z,102347.91
2018-09-29T01:42:18.395Z,102353.41
2018-09-29T01:44:46.852Z,102355.55
2018-09-29T01:47:15.276Z,102348.47
2018-09-29T01:49:43.689Z,102349.67
2018-09-29T01:52:12.096Z,102355.87
2018-09-29T01:54:40.501Z,102349.03
2018-09-29T01:57:08.965Z,102353.17
2018-09-29T01:59:37.323Z,102357.43
2018-09-29T02:02:05.774Z,102346.94
2018-09-29T02:04:34.205Z,102344.06
2018-09-29T02:07:02.621Z,102346.06
2018-09-29T02:09:31.040Z,102340.89
2018-09-29T02:11:59.484Z,102346.61
2018-09-29T02:14:27.867Z,102353.41
2018-09-29T02:16:56.299Z,102357.95
2018-09-29T02:19:24.755Z,102357.95
2018-09-29T02:21:53.182Z,102354.37
2018-09-29T02:24:21.576Z,102350.00
2018-09-29T02:26:50.058Z,102355.39
2018-09-29T02:31:45.890Z,102357.54
2018-09-29T02:34:14.624Z,102353.96
2018-09-29T02:36:43.088Z,102347.44
2018-09-29T02:39:12.631Z,102346.48
2018-09-29T02:41:41.061Z,102344.53
2018-09-29T02:44:10.019Z,102345.82
2018-09-29T02:46:38.468Z,102358.28
2018-09-29T02:49:07.022Z,102355.33
2018-09-29T02:51:35.441Z,102353.28
2018-09-29T02:54:03.986Z,102350.74
2018-09-29T02:56:32.408Z,102354.22
2018-09-29T02:59:00.791Z,102343.72
2018-09-29T03:01:29.201Z,102344.77
2018-09-29T03:03:58.330Z,102345.55
2018-09-29T03:06:26.788Z,102319.05
2018-09-29T03:08:55.162Z,102351.53
2018-09-29T03:11:23.544Z,102352.70
2018-09-29T03:13:51.968Z,102350.27
2018-09-29T03:16:20.387Z,102357.23
2018-09-29T03:18:48.815Z,102356.11
2018-09-29T03:21:17.849Z,102363.19
2018-09-29T03:23:46.268Z,102355.25
2018-09-29T03:26:14.665Z,102353.70
2018-09-29T03:28:43.162Z,102352.13
2018-09-29T03:31:11.552Z,102355.46
2018-09-29T03:33:39.938Z,102358.39
2018-09-29T03:36:08.336Z,102359.55
2018-09-29T03:38:36.831Z,102349.19
2018-09-29T03:41:05.262Z,102349.84
2018-09-29T03:43:33.775Z,102351.03
2018-09-29T03:46:02.199Z,102352.47
2018-09-29T03:48:30.615Z,102345.16
2018-09-29T03:50:59.030Z,102341.42
2018-09-29T03:53:27.469Z,102344.03
2018-09-29T03:55:55.859Z,102342.64
2018-09-29T03:58:24.331Z,102346.56
2018-09-29T04:00:52.752Z,102345.30
2018-09-29T04:03:21.178Z,102339.81
2018-09-29T04:05:49.584Z,102346.17
2018-09-29T04:08:18.004Z,102346.88
2018-09-29T04:10:46.861Z,102340.19
2018-09-29T04:13:15.259Z,102348.42
2018-09-29T04:15:43.679Z,102342.95
2018-09-29T04:18:12.902Z,102347.95
2018-09-29T04:20:41.322Z,102351.45
2018-09-29T04:23:09.735Z,102348.65
2018-09-29T04:25:38.180Z,102353.77
2018-09-29T04:28:06.608Z,102354.56
2018-09-29T04:30:35.058Z,102360.38
2018-09-29T04:33:04.333Z,102356.30
2018-09-29T04:35:32.777Z,102355.61
2018-09-29T04:38:01.167Z,102359.46
2018-09-29T04:40:29.597Z,102361.39
2018-09-29T04:42:58.061Z,102354.77
2018-09-29T04:45:26.509Z,102356.83
2018-09-29T04:47:54.924Z,102348.03
2018-09-29T04:50:23.339Z,102353.20
2018-09-29T04:52:51.764Z,102358.84
2018-09-29T04:55:20.204Z,102353.11
2018-09-29T04:57:48.593Z,102353.33
2018-09-29T05:00:16.988Z,102362.09
2018-09-29T05:02:45.432Z,102363.92
2018-09-29T05:05:13.861Z,102365.71
2018-09-29T05:07:42.304Z,102369.73
2018-09-29T05:10:10.709Z,102364.75
2018-09-29T05:12:39.092Z,102369.25
2018-09-29T05:15:07.549Z,102371.48
2018-09-29T05:17:35.917Z,102376.74
2018-09-29T05:20:04.368Z,102375.69
2018-09-29T05:22:32.776Z,102365.84
2018-09-29T05:25:01.149Z,102367.92
2018-09-29T05:27:29.589Z,102372.13
2018-09-29T05:29:58.020Z,102373.75
2018-09-29T05:32:26.444Z,102375.86
2018-09-29T05:34:54.873Z,102378.22
2018-09-29T05:37:23.347Z,102373.84
2018-09-29T05:39:52.000Z,102368.86
2018-09-29T05:42:20.444Z,102377.34
2018-09-29T05:44:48.833Z,102377.34
2018-09-29T05:47:17.794Z,102373.55
2018-09-29T05:49:46.198Z,102369.64
2018-09-29T05:52:14.637Z,102372.97
2018-09-29T05:54:43.421Z,102379.83
2018-09-29T05:57:11.829Z,102380.13
2018-09-29T05:59:40.906Z,102381.88
2018-09-29T06:02:09.360Z,102375.20
2018-09-29T06:04:38.573Z,102364.27
2018-09-29T06:07:07.499Z,102375.69
2018-09-29T06:09:35.856Z,102378.31
2018-09-29T06:12:04.875Z,102371.58
2018-09-29T06:14:33.260Z,102379.46
2018-09-29T06:17:01.728Z,102382.08
2018-09-29T06:19:30.185Z,102380.30
2018-09-29T06:21:58.621Z,102378.36
2018-09-29T06:24:27.043Z,102385.16
2018-09-29T06:26:55.599Z,102390.59
2018-09-29T06:29:24.071Z,102389.00
2018-09-29T06:31:52.603Z,102384.67
2018-09-29T06:34:21.062Z,102383.57
2018-09-29T06:36:49.473Z,102387.59
2018-09-29T06:39:17.957Z,102382.77
2018-09-29T06:41:46.444Z,102387.67
2018-09-29T06:44:14.872Z,102383.16
2018-09-29T06:46:43.309Z,102383.51
2018-09-29T06:49:11.760Z,102380.64
2018-09-29T06:51:40.232Z,102380.19
2018-09-29T06:54:08.608Z,102380.17
2018-09-29T06:56:37.051Z,102381.24
2018-09-29T06:59:05.550Z,102381.70
2018-09-29T07:01:33.979Z,102385.45
2018-09-29T07:04:02.439Z,102377.27
2018-09-29T07:06:30.913Z,102377.33
2018-09-29T07:08:59.360Z,102381.63
2018-09-29T07:11:27.902Z,102376.38
2018-09-29T07:13:56.461Z,102380.92
2018-09-29T07:16:24.928Z,102374.88
2018-09-29T07:18:53.433Z,102378.26
2018-09-29T07:21:21.882Z,102379.93
2018-09-29T07:23:50.301Z,102383.63
2018-09-29T07:26:18.736Z,102373.60
2018-09-29T07:28:47.221Z,102382.35
2018-09-29T07:31:15.768Z,102386.01
2018-09-29T07:33:44.191Z,102381.27
2018-09-29T07:38:53.799Z,102382.61
2018-09-29T07:41:22.384Z,102373.09
2018-09-29T07:43:50.770Z,102376.74
2018-09-29T07:46:19.289Z,102376.17
2018-09-29T07:48:47.644Z,102386.19
2018-09-29T07:51:16.163Z,102378.34
2018-09-29T07:53:44.610Z,102385.96
2018-09-29T07:56:13.024Z,102384.62
2018-09-29T07:58:41.493Z,102381.51
2018-09-29T08:01:10.008Z,102383.48
2018-09-29T08:03:38.433Z,102376.86
2018-09-29T08:06:06.861Z,102380.22
2018-09-29T08:08:35.948Z,102375.09
2018-09-29T08:11:04.574Z,102371.52
2018-09-29T08:13:33.065Z,102375.23
2018-09-29T08:16:01.526Z,102366.52
2018-09-29T08:18:29.931Z,102367.86
2018-09-29T08:20:58.439Z,102368.95
2018-09-29T08:23:26.856Z,102371.65
2018-09-29T08:25:55.399Z,102364.00
2018-09-29T08:28:23.836Z,102370.03
2018-09-29T08:30:52.335Z,102369.22
2018-09-29T08:33:20.761Z,102368.48
2018-09-29T08:35:49.340Z,102371.25
2018-09-29T08:38:17.803Z,102368.87
2018-09-29T08:40:46.408Z,102366.13
2018-09-29T08:43:14.833Z,102366.74
2018-09-29T08:45:43.284Z,102365.44
2018-09-29T08:48:11.723Z,102373.23
2018-09-29T08:50:40.238Z,102361.69
2018-09-29T08:53:08.733Z,102360.72
2018-09-29T08:55:37.227Z,102358.37
2018-09-29T08:58:05.835Z,102362.73
2018-09-29T09:00:34.312Z,102358.23
2018-09-29T09:03:02.760Z,102351.01
2018-09-29T09:05:31.188Z,102344.64
2018-09-29T09:08:00.032Z,102347.56
2018-09-29T09:10:28.483Z,102346.81
2018-09-29T09:12:56.917Z,102343.39
2018-09-29T09:15:25.407Z,102341.23
2018-09-29T09:17:53.833Z,102342.58
2018-09-29T09:20:22.306Z,102338.23
2018-09-29T09:22:50.807Z,102334.94
2018-09-29T09:25:19.293Z,102332.97
2018-09-29T09:27:47.773Z,102332.63
2018-09-29T09:30:16.358Z,102337.47
2018-09-29T09:32:44.853Z,102320.79
2018-09-29T09:35:13.297Z,102307.23
2018-09-29T09:37:41.795Z,102328.24
2018-09-29T09:40:10.173Z,102328.65
2018-09-29T09:42:38.639Z,102313.28
2018-09-29T09:45:08.854Z,102312.92
2018-09-29T09:47:37.352Z,102313.27
2018-09-29T09:50:05.878Z,102300.08
2018-09-29T09:52:34.314Z,102296.18
2018-09-29T09:55:02.906Z,102294.15
2018-09-29T09:57:31.389Z,102287.47
2018-09-29T09:59:59.973Z,102288.28
2018-09-29T10:03:33.102Z,102281.77
2018-09-29T10:06:01.665Z,102284.84
2018-09-29T10:08:30.256Z,102280.03
2018-09-29T10:10:58.744Z,102274.56
2018-09-29T10:13:27.160Z,102269.23
2018-09-29T10:15:55.637Z,102271.44
2018-09-29T10:18:24.132Z,102264.51
2018-09-29T10:20:52.622Z,102257.70
2018-09-29T10:23:21.080Z,102252.37
2018-09-29T10:25:49.582Z,102251.73
2018-09-29T10:28:18.039Z,102247.84
2018-09-29T10:30:46.490Z,102245.39
2018-09-29T10:33:15.005Z,102239.22
2018-09-29T10:35:43.428Z,102231.24
2018-09-29T10:38:11.874Z,102228.11
2018-09-29T10:40:40.389Z,102225.55
2018-09-29T10:43:08.896Z,102223.19
2018-09-29T10:45:37.320Z,102226.83
2018-09-29T10:48:05.863Z,102218.69
2018-09-29T10:50:34.334Z,102211.73
2018-09-29T10:53:02.949Z,102212.97
2018-09-29T10:55:31.473Z,102209.33
2018-09-29T10:57:59.969Z,102211.33
2018-09-29T11:00:28.418Z,102206.27
2018-09-29T11:02:56.909Z,102204.42
2018-09-29T11:05:25.387Z,102204.31
2018-09-29T11:07:53.868Z,102193.39
2018-09-29T11:10:22.347Z,102191.09
2018-09-29T11:12:50.831Z,102185.84
2018-09-29T11:15:19.301Z,102190.88
2018-09-29T11:17:47.746Z,102186.06
2018-09-29T11:20:16.186Z,102186.94
2018-09-29T11:22:44.916Z,102179.66
2018-09-29T11:25:13.380Z,102176.95
2018-09-29T11:27:41.853Z,102172.52
2018-09-29T11:30:10.424Z,102169.95
2018-09-29T11:32:38.912Z,102158.02
2018-09-29T11:35:07.568Z,102150.70
2018-09-29T11:37:36.110Z,102149.01
2018-09-29T11:40:04.611Z,102143.14
2018-09-29T11:42:33.094Z,102143.80
2018-09-29T11:45:01.548Z,102139.96
2018-09-29T11:47:30.046Z,102140.75
2018-09-29T11:49:58.648Z,102131.73
2018-09-29T11:52:27.104Z,102128.34
2018-09-29T11:54:55.538Z,102115.35
2018-09-29T11:57:24.015Z,102106.39
2018-09-29T11:59:52.463Z,102100.94
2018-09-29T12:02:21.092Z,102097.63
2018-09-29T12:04:49.785Z,102090.69
2018-09-29T12:07:18.363Z,102085.27
2018-09-29T12:09:46.726Z,102089.37
2018-09-29T12:12:15.384Z,102087.86
2018-09-29T12:14:43.838Z,102081.32
2018-09-29T12:17:12.317Z,102081.61
2018-09-29T12:19:40.753Z,102070.86
2018-09-29T12:22:09.201Z,102074.12
2018-09-29T12:24:37.656Z,102072.50
2018-09-29T12:27:06.128Z,102060.71
2018-09-29T12:29:34.561Z,102058.27
2018-09-29T12:32:03.068Z,102054.73
2018-09-29T12:34:31.533Z,102055.55
2018-09-29T12:37:00.125Z,102054.50
2018-09-29T12:39:28.457Z,102053.30
2018-09-29T12:41:56.976Z,102041.33
2018-09-29T12:44:25.459Z,102042.50
2018-09-29T12:46:53.873Z,102039.77
2018-09-29T12:49:22.502Z,102027.00
2018-09-29T12:51:51.011Z,102023.17
2018-09-29T12:54:19.422Z,102022.67
2018-09-29T12:56:47.916Z,102025.49
2018-09-29T12:59:16.776Z,102016.39
2018-09-29T13:01:45.227Z,102010.77
2018-09-29T13:04:13.719Z,102009.45
2018-09-29T13:06:42.187Z,102001.91
2018-09-29T13:09:10.611Z,101998.03
2018-09-29T13:11:39.191Z,101992.65
2018-09-29T13:14:07.804Z,101988.75
2018-09-29T13:16:36.303Z,101986.84
2018-09-29T13:19:04.807Z,101984.84
2018-09-29T13:21:33.269Z,101978.27
2018-09-29T13:24:01.722Z,101975.89
2018-09-29T13:26:30.208Z,101963.84
2018-09-29T13:28:58.597Z,101973.02
2018-09-29T13:31:28.106Z,101969.25
2018-09-29T13:33:56.548Z,101960.69
2018-09-29T13:36:24.968Z,101961.91
2018-09-29T13:38:53.436Z,101959.89
2018-09-29T13:41:21.927Z,101948.33
2018-09-29T13:43:50.413Z,101953.05
2018-09-29T13:46:18.844Z,101944.80
2018-09-29T13:48:47.307Z,101943.23
2018-09-29T13:51:15.796Z,101935.34
2018-09-29T13:53:44.311Z,101939.47
2018-09-29T13:56:12.663Z,101938.13
2018-09-29T13:58:41.152Z,101930.59
2018-09-29T14:01:09.576Z,101932.54
2018-09-29T14:03:37.987Z,101917.78
2018-09-29T14:06:06.609Z,101911.84
2018-09-29T14:08:35.076Z,101906.75
2018-09-29T14:11:03.450Z,101899.53
2018-09-29T14:13:31.867Z,101903.58
2018-09-29T14:16:00.498Z,101896.96
2018-09-29T14:18:28.966Z,101894.68
2018-09-29T14:20:57.433Z,101890.38
2018-09-29T14:23:25.842Z,101889.14
2018-09-29T14:25:54.293Z,101882.84
2018-09-29T14:28:22.795Z,101877.46
2018-09-29T14:30:51.315Z,101879.61
2018-09-29T14:33:19.744Z,101869.91
2018-09-29T14:35:48.186Z,101867.93
2018-09-29T14:38:16.536Z,101868.27
2018-09-29T14:40:45.013Z,101861.53
2018-09-29T14:43:13.446Z,101859.38
2018-09-29T14:45:41.873Z,101851.01
2018-09-29T14:48:10.316Z,101853.97
2018-09-29T14:50:38.701Z,101849.63
2018-09-29T14:53:07.199Z,101845.18
2018-09-29T14:55:35.593Z,101846.47
2018-09-29T14:58:04.223Z,101835.92
2018-09-29T15:00:32.528Z,101834.50
2018-09-29T15:03:01.000Z,101831.28
2018-09-29T15:05:29.468Z,101827.17
2018-09-29T15:07:57.968Z,101830.08
2018-09-29T15:10:26.521Z,101825.70
2018-09-29T15:12:55.004Z,101814.27
2018-09-29T15:15:24.109Z,101816.16
2018-09-29T15:17:52.608Z,101814.01
2018-09-29T15:20:21.123Z,101809.60
2018-09-29T15:22:49.525Z,101809.28
2018-09-29T15:25:17.977Z,101800.88
2018-09-29T15:27:46.436Z,101809.28
2018-09-29T15:30:14.896Z,101803.45
2018-09-29T15:32:43.313Z,101810.53
2018-09-29T15:35:11.811Z,101811.34
2018-09-29T15:37:40.237Z,101800.61
2018-09-29T15:40:08.752Z,101801.75
2018-09-29T15:42:37.289Z,101787.53
2018-09-29T15:45:07.181Z,101795.69
2018-09-29T15:47:35.561Z,101787.16
2018-09-29T15:50:04.051Z,101789.19
2018-09-29T15:52:32.443Z,101789.63
2018-09-29T15:55:00.907Z,101777.02
2018-09-29T15:57:29.305Z,101781.73
2018-09-29T15:59:57.706Z,101777.44
2018-09-29T16:02:26.715Z,101781.98
2018-09-29T16:04:55.220Z,101779.23
2018-09-29T16:07:24.051Z,101773.44
2018-09-29T16:09:52.632Z,101769.90
2018-09-29T16:12:21.037Z,101768.57
2018-09-29T16:14:49.585Z,101768.97
2018-09-29T16:17:18.013Z,101764.89
2018-09-29T16:19:46.705Z,101762.58
2018-09-29T16:22:15.112Z,101750.34
2018-09-29T16:24:43.587Z,101761.42
2018-09-29T16:27:12.004Z,101750.95
2018-09-29T16:29:40.468Z,101750.72
2018-09-29T16:32:09.053Z,101749.33
2018-09-29T16:34:37.415Z,101739.50
2018-09-29T16:37:05.868Z,101741.87
2018-09-29T16:39:34.354Z,101746.48
2018-09-29T16:42:02.840Z,101747.61
2018-09-29T16:44:31.276Z,101747.30
2018-09-29T16:46:59.753Z,101745.23
2018-09-29T16:49:28.265Z,101743.55
2018-09-29T16:51:56.815Z,101744.31
2018-09-29T16:54:25.259Z,101741.91
2018-09-29T16:56:53.689Z,101739.00
2018-09-29T16:59:22.156Z,101742.52
2018-09-29T17:01:50.663Z,101737.98
2018-09-29T17:04:19.171Z,101741.65
2018-09-29T17:06:47.627Z,101742.84
2018-09-29T17:09:16.049Z,101744.80
2018-09-29T17:11:45.229Z,101737.77
2018-09-29T17:14:13.789Z,101747.48
2018-09-29T17:16:42.282Z,101740.46
2018-09-29T17:19:10.697Z,101739.05
2018-09-29T17:21:39.155Z,101736.77
2018-09-29T17:24:08.050Z,101740.92
2018-09-29T17:26:36.524Z,101738.16
2018-09-29T17:29:05.136Z,101740.52
2018-09-29T17:31:33.604Z,101742.07
2018-09-29T17:34:02.068Z,101744.77
2018-09-29T17:36:30.473Z,101743.75
2018-09-29T17:38:59.019Z,101743.13
2018-09-29T17:41:27.481Z,101736.67
2018-09-29T17:43:56.018Z,101741.34
2018-09-29T17:46:24.468Z,101737.89
2018-09-29T17:48:52.965Z,101729.22
2018-09-29T17:51:21.422Z,101735.10
2018-09-29T17:53:49.951Z,101729.34
2018-09-29T17:56:18.407Z,101726.66
2018-09-29T17:58:46.903Z,101723.88
2018-09-29T18:01:15.285Z,101726.62
2018-09-29T18:03:43.706Z,101734.94
2018-09-29T18:06:12.153Z,101730.03
2018-09-29T18:08:40.627Z,101726.48
2018-09-29T18:11:09.083Z,101722.95
2018-09-29T18:13:37.628Z,101724.19
2018-09-29T18:16:06.263Z,101723.23
2018-09-29T18:18:34.994Z,101712.88
2018-09-29T18:21:03.481Z,101718.58
2018-09-29T18:23:31.924Z,101720.02
2018-09-29T18:26:04.082Z,101724.23
2018-09-29T18:28:32.672Z,101725.09
2018-09-29T18:31:01.292Z,101718.74
2018-09-29T18:33:29.812Z,101715.16
2018-09-29T18:35:58.400Z,101709.59
2018-09-29T18:38:26.824Z,101723.98
2018-09-29T18:40:55.307Z,101726.69
2018-09-29T18:43:23.747Z,101720.05
2018-09-29T18:45:52.244Z,101716.90
2018-09-29T18:48:20.770Z,101714.63
2018-09-29T18:50:49.205Z,101719.73
2018-09-29T18:53:20.537Z,101717.59
2018-09-29T18:55:48.973Z,101719.98
2018-09-29T18:58:17.418Z,101722.27
2018-09-29T19:00:45.853Z,101727.20
2018-09-29T19:03:14.261Z,101722.37
2018-09-29T19:05:42.697Z,101717.57
2018-09-29T19:08:11.227Z,101716.75
2018-09-29T19:10:40.472Z,101717.57
2018-09-29T19:13:09.027Z,101716.20
2018-09-29T19:15:37.482Z,101709.96
2018-09-29T19:18:05.988Z,101717.98
2018-09-29T19:20:34.485Z,101716.84
2018-09-29T19:23:02.906Z,101707.94
2018-09-29T19:25:31.405Z,101703.33
2018-09-29T19:27:59.844Z,101704.20
2018-09-29T19:30:28.736Z,101702.47
2018-09-29T19:32:57.206Z,101710.55
2018-09-29T19:35:25.639Z,101720.52
2018-09-29T19:37:54.117Z,101711.70
2018-09-29T19:40:22.547Z,101699.34
2018-09-29T19:42:50.994Z,101707.52
2018-09-29T19:45:19.533Z,101708.34
2018-09-29T19:47:47.971Z,101711.39
2018-09-29T19:50:16.479Z,101705.38
2018-09-29T19:52:44.968Z,101701.91
2018-09-29T19:55:13.460Z,101693.59
2018-09-29T19:57:42.060Z,101689.81
2018-09-29T20:00:10.603Z,101694.19
2018-09-29T20:02:39.139Z,101692.50
2018-09-29T20:05:07.729Z,101693.12
2018-09-29T20:07:36.711Z,101689.53
2018-09-29T20:10:05.488Z,101687.20
2018-09-29T20:12:34.077Z,101690.34
2018-09-29T20:15:02.477Z,101688.25
2018-09-29T20:17:31.028Z,101688.81
2018-09-29T20:19:59.459Z,101684.24
2018-09-29T20:22:27.904Z,101688.25
2018-09-29T20:24:56.336Z,101683.14
2018-09-29T20:27:24.788Z,101681.73
2018-09-29T20:29:53.257Z,101679.59
2018-09-29T20:32:21.767Z,101678.73
2018-09-29T20:34:50.314Z,101676.08
2018-09-29T20:37:18.755Z,101676.89
2018-09-29T20:39:47.163Z,101668.27
2018-09-29T20:42:15.629Z,101670.41
2018-09-29T20:44:44.597Z,101669.59
2018-09-29T20:47:13.070Z,101671.28
2018-09-29T20:49:41.592Z,101667.58
2018-09-29T20:52:10.033Z,101670.99
2018-09-29T20:54:38.537Z,101672.27
2018-09-29T20:57:07.072Z,101665.07
2018-09-29T20:59:35.545Z,101666.25
2018-09-29T21:02:04.000Z,101660.59
2018-09-29T21:04:32.465Z,101660.13
2018-09-29T21:07:00.906Z,101654.43
2018-09-29T21:09:32.240Z,101452.39
2018-09-29T21:12:08.425Z,101640.80
2018-09-29T21:14:36.916Z,101640.70
2018-09-29T21:17:05.557Z,101643.71
2018-09-29T21:19:34.032Z,101636.42
2018-09-29T21:22:02.549Z,101629.63
2018-09-29T21:24:31.041Z,101624.62
2018-09-29T21:26:59.459Z,101622.94
2018-09-29T21:29:27.892Z,101608.91
2018-09-29T21:31:56.502Z,101612.23
2018-09-29T21:34:24.977Z,101614.32
2018-09-29T21:36:53.429Z,101612.59
2018-09-29T21:39:21.917Z,101605.48
2018-09-29T21:41:50.313Z,101598.24
2018-09-29T21:44:18.774Z,101601.61
2018-09-29T21:46:47.216Z,101591.20
2018-09-29T21:49:15.654Z,101584.33
2018-09-29T21:51:44.258Z,101592.89
2018-09-29T21:54:12.973Z,101595.55
2018-09-29T21:56:41.439Z,101590.44
2018-09-29T21:59:09.901Z,101588.66
2018-09-29T22:01:38.368Z,101586.88
2018-09-29T22:04:07.052Z,101586.92
2018-09-29T22:06:35.477Z,101582.64
2018-09-29T22:09:04.896Z,101587.92
2018-09-29T22:11:33.344Z,101587.41
2018-09-29T22:14:01.768Z,101582.52
2018-09-29T22:16:30.418Z,101580.50
2018-09-29T22:18:59.345Z,101574.89
2018-09-29T22:21:27.825Z,101576.16
2018-09-29T22:23:56.417Z,101572.13
2018-09-29T22:26:24.830Z,101573.30
2018-09-29T22:28:53.268Z,101577.81
2018-09-29T22:31:21.730Z,101575.11
2018-09-29T22:33:50.167Z,101571.23
2018-09-29T22:36:18.636Z,101566.73
2018-09-29T22:38:47.128Z,101565.27
2018-09-29T22:41:15.553Z,101565.17
2018-09-29T22:43:43.965Z,101562.57
2018-09-29T22:46:12.434Z,101559.05
2018-09-29T22:48:40.832Z,101558.18
2018-09-29T22:51:09.322Z,101552.98
2018-09-29T22:53:37.848Z,101550.84
2018-09-29T22:56:06.364Z,101550.29
2018-09-29T22:58:34.773Z,101555.28
2018-09-29T23:01:03.548Z,101550.54
2018-09-29T23:03:32.021Z,101538.50
2018-09-29T23:06:00.668Z,101539.73
2018-09-29T23:08:29.098Z,101539.32
2018-09-29T23:10:57.861Z,101553.12
2018-09-29T23:13:26.331Z,101554.79
2018-09-29T23:15:54.759Z,101552.69
2018-09-29T23:18:23.417Z,101550.09
2018-09-29T23:20:51.945Z,101548.41
2018-09-29T23:23:20.562Z,101545.11
2018-09-29T23:25:48.953Z,101547.14
2018-09-29T23:28:17.652Z,101549.17
2018-09-29T23:30:46.130Z,101545.23
2018-09-29T23:33:14.570Z,101549.81
2018-09-29T23:35:43.010Z,101547.67
2018-09-29T23:38:11.408Z,101546.91
2018-09-29T23:40:39.870Z,101533.72
2018-09-29T23:43:08.305Z,101539.48
2018-09-29T23:45:36.764Z,101538.16
2018-09-29T23:48:05.190Z,101543.89
2018-09-29T23:50:33.562Z,101550.66
2018-09-29T23:53:02.036Z,101548.00
2018-09-29T23:55:30.440Z,101541.93
2018-09-29T23:57:58.889Z,101537.50
